Terminal Aerodrome Forecast
Issued by NWS

Home | Current Version | Previous Version | Graphics & Text | Print | Product List | Glossary On
Versions: 1 2 3 4 5 6 7 8 9 10 11 12 13 14 15 16 17 18 19 20 21
000
FTUS43 KABR 261726
TAFMBG
TAF
KMBG 261726Z 2618/2718 33023G28KT P6SM BKN150
     FM262000 07009KT P6SM VCTS BKN200CB
     FM270000 08012KT P6SM -SHRA VCTS BKN090CB
     FM270200 07008KT P6SM VCTS BKN090CB
     FM270300 07008KT P6SM BKN140
     FM271200 03006KT P6SM BKN015
     FM271400 04008KT P6SM BKN035
     FM271600 05010KT P6SM SCT060=

USA.gov is the U.S. government's official web portal to all federal, state and local government web resources and services.